Archival Weather

Al Kharj

Al Kharj, Saudi Arabia (OEKJ)

Report from: Thursday, September 21, 2023 7:00 PM UTC
Current time: Friday, February 23, 2024 7:34 PM UTC

Current weather – Weather history – Daily summaries
Weather forecast

Temperature33.0°C (91.4°F)
Heat index30.6°C (87.1°F)
Dew point-4.0°C (24.8°F)
Winds 5 kts (2.6 m/s, 5.8 mph) Northeast (50°)
Clouds Sky clear
Altimeter29.91 in.Hg (1013 mB)
Relative humidity9 %
Density altitude2,138 ft. (652 m)
Remarks Ceiling and visibility OK
Flight conditions Visual Meteorological Conditions
Raw dataOEKJ 211900Z 05005KT CAVOK 33/M04 Q1013
An error has occurred. This application may no longer respond until reloaded. Reload 🗙